createdAt,value
2022-10-07T04:31:05.860Z,0.00
2022-10-07T04:32:05.757Z,0.00
2022-10-07T04:33:05.751Z,0.00
2022-10-07T04:34:05.725Z,0.00
2022-10-07T04:35:05.730Z,0.00
2022-10-07T04:36:05.701Z,0.00
2022-10-07T04:37:05.709Z,0.00
2022-10-07T04:38:05.686Z,0.00
2022-10-07T04:39:05.668Z,0.00
2022-10-07T04:40:05.654Z,0.00
2022-10-07T04:41:05.642Z,0.00
2022-10-07T04:42:05.654Z,0.00
2022-10-07T04:43:05.645Z,0.00
2022-10-07T04:44:05.614Z,0.00
2022-10-07T04:45:05.603Z,0.00
2022-10-07T04:46:05.612Z,0.00
2022-10-07T04:47:05.685Z,0.00
2022-10-07T04:48:05.571Z,0.00
2022-10-07T04:49:05.569Z,0.00
2022-10-07T04:50:05.571Z,0.00
2022-10-07T04:51:05.564Z,0.00
2022-10-07T04:52:05.526Z,0.00
2022-10-07T04:53:05.519Z,0.00
2022-10-07T04:54:05.506Z,0.00
2022-10-07T04:55:05.502Z,0.00
2022-10-07T04:56:05.502Z,0.00
2022-10-07T04:57:05.471Z,0.00
2022-10-07T04:58:05.461Z,0.00
2022-10-07T04:59:05.475Z,0.00
2022-10-07T05:00:05.439Z,0.00
2022-10-07T05:01:05.483Z,0.00
2022-10-07T05:02:05.503Z,0.00
2022-10-07T05:03:05.428Z,0.00
2022-10-07T05:04:05.395Z,0.00
2022-10-07T05:05:05.387Z,0.00
2022-10-07T05:06:06.141Z,0.00
2022-10-07T05:07:05.365Z,0.00
2022-10-07T05:08:05.376Z,0.00
2022-10-07T05:09:05.345Z,0.00
2022-10-07T05:10:05.332Z,0.00
2022-10-07T05:11:05.319Z,0.00
2022-10-07T05:12:05.335Z,0.00
2022-10-07T05:13:05.296Z,0.00
2022-10-07T05:14:05.315Z,0.00
2022-10-07T05:15:05.282Z,0.00
2022-10-07T05:16:05.323Z,0.00
2022-10-07T05:17:05.297Z,0.00
2022-10-07T05:18:05.254Z,4.00
2022-10-07T05:19:05.251Z,0.00
2022-10-07T05:20:05.223Z,0.00
2022-10-07T05:21:05.212Z,0.00
2022-10-07T05:22:05.219Z,4.00
2022-10-07T05:23:05.190Z,0.00
2022-10-07T05:24:05.200Z,0.00
2022-10-07T05:25:05.168Z,4.00
2022-10-07T05:26:05.174Z,0.00
2022-10-07T05:27:05.143Z,4.00
2022-10-07T05:28:05.211Z,0.00
2022-10-07T05:29:05.135Z,4.00
2022-10-07T05:30:05.121Z,4.00
2022-10-07T05:31:05.227Z,4.00
2022-10-07T05:32:05.460Z,4.00
2022-10-07T05:33:05.080Z,4.00
2022-10-07T05:34:05.093Z,8.00
2022-10-07T05:35:05.075Z,8.00
2022-10-07T05:36:05.062Z,8.00
2022-10-07T05:37:05.051Z,8.00
2022-10-07T05:38:05.025Z,12.00
2022-10-07T05:39:05.034Z,12.00
2022-10-07T05:40:05.008Z,12.00
2022-10-07T05:41:04.992Z,16.00
2022-10-07T05:42:05.012Z,16.00
2022-10-07T05:43:04.973Z,20.00
2022-10-07T05:44:04.979Z,20.00
2022-10-07T05:45:04.956Z,20.00
2022-10-07T05:46:05.040Z,24.00
2022-10-07T05:47:04.949Z,24.00
2022-10-07T05:48:04.927Z,28.00
2022-10-07T05:49:04.905Z,32.00
2022-10-07T05:50:04.917Z,32.00
2022-10-07T05:51:04.898Z,36.00
2022-10-07T05:52:04.873Z,40.00
2022-10-07T05:53:04.863Z,44.00
2022-10-07T05:54:04.863Z,44.00
2022-10-07T05:55:04.869Z,48.00
2022-10-07T05:56:04.828Z,48.00
2022-10-07T05:57:04.818Z,52.00
2022-10-07T05:58:04.808Z,56.00
2022-10-07T05:59:04.800Z,60.00
2022-10-07T06:00:04.795Z,64.00
2022-10-07T06:01:07.726Z,64.00
2022-10-07T06:02:05.877Z,72.00
2022-10-07T06:03:04.979Z,72.00
2022-10-07T06:04:04.776Z,72.00
2022-10-07T06:05:04.737Z,80.00
2022-10-07T06:06:04.727Z,84.00
2022-10-07T06:07:04.791Z,92.00
2022-10-07T06:08:04.699Z,96.00
2022-10-07T06:09:04.693Z,120.00
2022-10-07T06:10:04.677Z,132.00
2022-10-07T06:11:04.667Z,124.00
2022-10-07T06:12:04.679Z,124.00
2022-10-07T06:13:04.657Z,140.00
2022-10-07T06:14:04.632Z,208.00
2022-10-07T06:15:04.651Z,224.00
2022-10-07T06:16:04.609Z,320.00
2022-10-07T06:17:04.738Z,448.00
2022-10-07T06:18:04.599Z,512.00
2022-10-07T06:19:04.606Z,460.00
2022-10-07T06:20:04.635Z,568.00
2022-10-07T06:21:04.589Z,708.00
2022-10-07T06:22:04.545Z,684.00
2022-10-07T06:23:04.556Z,836.00
2022-10-07T06:24:04.541Z,804.00
2022-10-07T06:25:04.514Z,668.00
2022-10-07T06:26:04.503Z,720.00
2022-10-07T06:27:04.522Z,844.00
2022-10-07T06:28:04.536Z,820.00
2022-10-07T06:29:04.469Z,836.00
2022-10-07T06:30:04.465Z,956.00
2022-10-07T06:31:04.490Z,948.00
2022-10-07T06:32:04.448Z,816.00
2022-10-07T06:33:04.446Z,780.00
2022-10-07T06:34:04.417Z,724.00
2022-10-07T06:35:04.401Z,668.00
2022-10-07T06:36:04.736Z,932.00
2022-10-07T06:37:04.407Z,448.00
2022-10-07T06:38:04.392Z,560.00
2022-10-07T06:39:04.389Z,712.00
2022-10-07T06:40:04.347Z,832.00
2022-10-07T06:41:04.354Z,956.00
2022-10-07T06:42:04.327Z,968.00
2022-10-07T06:43:04.333Z,620.00
2022-10-07T06:44:04.304Z,1076.00
2022-10-07T06:45:04.297Z,1480.00
2022-10-07T06:46:04.463Z,1388.00
2022-10-07T06:47:07.868Z,1168.00
2022-10-07T06:48:05.282Z,1532.00
2022-10-07T06:49:04.250Z,1348.00
2022-10-07T06:50:04.238Z,1076.00
2022-10-07T06:51:04.231Z,1784.00
2022-10-07T06:52:04.237Z,980.00
2022-10-07T06:53:04.237Z,1580.00
2022-10-07T06:54:04.230Z,1916.00
2022-10-07T06:55:04.204Z,2044.00
2022-10-07T06:56:04.173Z,1644.00
2022-10-07T06:57:20.416Z,1668.00
2022-10-07T06:58:10.559Z,1852.00
2022-10-07T06:59:05.192Z,2072.00
2022-10-07T07:00:04.130Z,1984.00
2022-10-07T07:01:04.153Z,2256.00
2022-10-07T07:02:04.141Z,2240.00
2022-10-07T07:03:04.097Z,2204.00
2022-10-07T07:04:04.091Z,2188.00
2022-10-07T07:05:04.106Z,2180.00
2022-10-07T07:06:04.069Z,2216.00
2022-10-07T07:07:04.052Z,2216.00
2022-10-07T07:08:04.042Z,2160.00
2022-10-07T07:09:04.033Z,2076.00
2022-10-07T07:10:04.021Z,2016.00
2022-10-07T07:11:04.080Z,1980.00
2022-10-07T07:12:04.005Z,1968.00
2022-10-07T07:13:03.999Z,1944.00
2022-10-07T07:14:03.976Z,1952.00
2022-10-07T07:15:03.963Z,1956.00
2022-10-07T07:16:03.957Z,1972.00
2022-10-07T07:17:04.085Z,1988.00
2022-10-07T07:18:03.957Z,1996.00
2022-10-07T07:19:03.922Z,1996.00
2022-10-07T07:20:03.912Z,2008.00
2022-10-07T07:21:03.900Z,1996.00
2022-10-07T07:22:03.889Z,1992.00
2022-10-07T07:23:03.911Z,1992.00
2022-10-07T07:24:03.907Z,1984.00
2022-10-07T07:25:03.864Z,2000.00
2022-10-07T07:26:03.843Z,1996.00
2022-10-07T07:27:03.892Z,2016.00
2022-10-07T07:28:03.906Z,2048.00
2022-10-07T07:29:03.853Z,2072.00
2022-10-07T07:30:03.808Z,1940.00
2022-10-07T07:31:03.863Z,2080.00
2022-10-07T07:32:03.778Z,2092.00
2022-10-07T07:33:03.768Z,2016.00
2022-10-07T07:34:03.752Z,2036.00
2022-10-07T07:35:03.816Z,2036.00
2022-10-07T07:36:03.752Z,2088.00
2022-10-07T07:37:03.740Z,2104.00
2022-10-07T07:38:03.712Z,2104.00
2022-10-07T07:39:03.705Z,1984.00
2022-10-07T07:40:03.693Z,2004.00
2022-10-07T07:41:03.709Z,2012.00
2022-10-07T07:42:03.670Z,1948.00
2022-10-07T07:43:03.691Z,2028.00
2022-10-07T07:44:03.649Z,2056.00
2022-10-07T07:45:03.647Z,2060.00
2022-10-07T07:46:03.672Z,2064.00
2022-10-07T07:47:03.619Z,2100.00
2022-10-07T07:48:03.649Z,2020.00
2022-10-07T07:49:03.603Z,2100.00
2022-10-07T07:50:04.344Z,2012.00
2022-10-07T07:51:03.571Z,2124.00
2022-10-07T07:52:03.584Z,2136.00
2022-10-07T07:53:03.559Z,2124.00
2022-10-07T07:54:03.538Z,2036.00
2022-10-07T07:55:03.522Z,2132.00
2022-10-07T07:56:03.527Z,2172.00
2022-10-07T07:57:03.528Z,2096.00
2022-10-07T07:58:03.493Z,2148.00
2022-10-07T07:59:03.523Z,2120.00
2022-10-07T08:00:03.473Z,2064.00
2022-10-07T08:01:03.586Z,2120.00
2022-10-07T08:02:03.479Z,2104.00
2022-10-07T08:03:03.444Z,2108.00
2022-10-07T08:04:03.427Z,2128.00
2022-10-07T08:05:03.458Z,1980.00
2022-10-07T08:06:03.407Z,2008.00
2022-10-07T08:07:03.396Z,2108.00
2022-10-07T08:08:03.391Z,2112.00
2022-10-07T08:09:03.373Z,1840.00
2022-10-07T08:10:03.395Z,2064.00
2022-10-07T08:11:03.374Z,2032.00
2022-10-07T08:12:03.341Z,1980.00
2022-10-07T08:13:03.358Z,2000.00
2022-10-07T08:14:03.315Z,1996.00
2022-10-07T08:15:03.331Z,2048.00
2022-10-07T08:16:03.415Z,2068.00
2022-10-07T08:17:03.287Z,2084.00
2022-10-07T08:18:03.301Z,2088.00
2022-10-07T08:19:03.263Z,2092.00
2022-10-07T08:20:03.269Z,1856.00
2022-10-07T08:21:03.265Z,2092.00
2022-10-07T08:22:03.237Z,2092.00
2022-10-07T08:23:03.216Z,2092.00
2022-10-07T08:24:03.212Z,2096.00
2022-10-07T08:25:03.218Z,2112.00
2022-10-07T08:26:03.180Z,2060.00
2022-10-07T08:27:03.192Z,1992.00
2022-10-07T08:28:03.201Z,2112.00
2022-10-07T08:29:03.148Z,2104.00
2022-10-07T08:30:03.169Z,2100.00
2022-10-07T08:31:03.224Z,2076.00
2022-10-07T08:32:03.136Z,2100.00
2022-10-07T08:33:03.108Z,2092.00
2022-10-07T08:34:03.109Z,2072.00
2022-10-07T08:35:03.083Z,2096.00
2022-10-07T08:36:03.070Z,2084.00
2022-10-07T08:37:03.087Z,2096.00
2022-10-07T08:38:03.049Z,2072.00
2022-10-07T08:39:03.035Z,2088.00
2022-10-07T08:40:03.031Z,2104.00
2022-10-07T08:41:03.016Z,2084.00
2022-10-07T08:42:03.029Z,2080.00
2022-10-07T08:43:03.005Z,2084.00
2022-10-07T08:44:06.237Z,2088.00
2022-10-07T08:45:02.977Z,2080.00
2022-10-07T08:46:03.011Z,2096.00
2022-10-07T08:47:03.006Z,2104.00
2022-10-07T08:48:02.937Z,2148.00
2022-10-07T08:49:02.927Z,2232.00
2022-10-07T08:50:02.945Z,2260.00
2022-10-07T08:51:02.923Z,2280.00
2022-10-07T08:52:02.925Z,2284.00
2022-10-07T08:53:02.885Z,2284.00
2022-10-07T08:54:02.870Z,2272.00
2022-10-07T08:55:02.886Z,2316.00
2022-10-07T08:56:02.861Z,2236.00
2022-10-07T08:57:02.844Z,2372.00
2022-10-07T08:58:02.857Z,2332.00
2022-10-07T08:59:02.819Z,2340.00
2022-10-07T09:00:02.814Z,2392.00
2022-10-07T09:01:02.895Z,2412.00
2022-10-07T09:02:02.783Z,2416.00
2022-10-07T09:03:02.815Z,2380.00
2022-10-07T09:04:02.791Z,2384.00
2022-10-07T09:05:02.775Z,2380.00
2022-10-07T09:06:02.746Z,2404.00
2022-10-07T09:07:02.736Z,2364.00
2022-10-07T09:08:02.717Z,2368.00
2022-10-07T09:09:02.709Z,2452.00
2022-10-07T09:10:02.743Z,2544.00
2022-10-07T09:11:07.227Z,2480.00
2022-10-07T09:12:03.675Z,2224.00
2022-10-07T09:13:02.664Z,2136.00
2022-10-07T09:14:02.680Z,2540.00
2022-10-07T09:15:02.649Z,2644.00
2022-10-07T09:16:02.692Z,2580.00
2022-10-07T09:17:02.636Z,2456.00
2022-10-07T09:18:02.618Z,2448.00
2022-10-07T09:19:02.671Z,2496.00
2022-10-07T09:20:02.590Z,2512.00
2022-10-07T09:21:02.602Z,2436.00
2022-10-07T09:22:02.612Z,2388.00
2022-10-07T09:23:02.557Z,2376.00
2022-10-07T09:24:02.551Z,2400.00
2022-10-07T09:25:03.159Z,2512.00
2022-10-07T09:26:02.539Z,2660.00
2022-10-07T09:27:02.539Z,2428.00
2022-10-07T09:28:02.553Z,2096.00
2022-10-07T09:29:02.494Z,2004.00
2022-10-07T09:30:02.482Z,2060.00
2022-10-07T09:31:02.591Z,1976.00
2022-10-07T09:32:02.464Z,1988.00
2022-10-07T09:33:02.446Z,1964.00
2022-10-07T09:34:02.459Z,1980.00
2022-10-07T09:35:02.440Z,2012.00
2022-10-07T09:36:02.408Z,2028.00
2022-10-07T09:37:02.401Z,1984.00
2022-10-07T09:38:02.413Z,2016.00
2022-10-07T09:39:02.398Z,2036.00
2022-10-07T09:40:02.393Z,2032.00
2022-10-07T09:41:02.358Z,2064.00
2022-10-07T09:42:02.347Z,2060.00
2022-10-07T09:43:02.344Z,2024.00
2022-10-07T09:44:02.340Z,2008.00
2022-10-07T09:45:02.346Z,2024.00
2022-10-07T09:46:02.360Z,2056.00
2022-10-07T09:47:02.293Z,2036.00
2022-10-07T09:48:02.301Z,2020.00
2022-10-07T09:49:02.268Z,2016.00
2022-10-07T09:50:02.278Z,2024.00
2022-10-07T09:51:02.264Z,1988.00
2022-10-07T09:52:02.250Z,1992.00
2022-10-07T09:53:02.279Z,1988.00
2022-10-07T09:54:02.214Z,2004.00
2022-10-07T09:55:02.227Z,2000.00
2022-10-07T09:56:02.189Z,1992.00
2022-10-07T09:57:02.198Z,1984.00
2022-10-07T09:58:02.177Z,1996.00
2022-10-07T09:59:02.177Z,2012.00
2022-10-07T10:00:02.151Z,2000.00
2022-10-07T10:01:02.166Z,2000.00
2022-10-07T10:02:02.211Z,1988.00
2022-10-07T10:03:05.203Z,1992.00
2022-10-07T10:04:02.107Z,2016.00
2022-10-07T10:05:02.109Z,2016.00
2022-10-07T10:06:02.093Z,2020.00
2022-10-07T10:07:02.104Z,2024.00
2022-10-07T10:08:02.086Z,2032.00
2022-10-07T10:09:02.052Z,2028.00
2022-10-07T10:10:02.051Z,2032.00
2022-10-07T10:11:02.045Z,2008.00
2022-10-07T10:12:02.052Z,2020.00
2022-10-07T10:13:02.045Z,2020.00
2022-10-07T10:14:02.002Z,2004.00
2022-10-07T10:15:01.984Z,2004.00
2022-10-07T10:16:02.094Z,1996.00
2022-10-07T10:17:01.974Z,2012.00
2022-10-07T10:18:01.974Z,2040.00
2022-10-07T10:19:01.942Z,2040.00
2022-10-07T10:20:01.933Z,2036.00
2022-10-07T10:21:01.917Z,2024.00
2022-10-07T10:22:01.933Z,2024.00
2022-10-07T10:23:01.918Z,2024.00
2022-10-07T10:24:01.891Z,2024.00
2022-10-07T10:25:01.878Z,2008.00
2022-10-07T10:26:01.864Z,2012.00
2022-10-07T10:27:01.878Z,2008.00
2022-10-07T10:28:01.876Z,2016.00
2022-10-07T10:29:01.860Z,2008.00
2022-10-07T10:30:01.879Z,2012.00
2022-10-07T10:31:01.829Z,1992.00
2022-10-07T10:32:01.803Z,1984.00
2022-10-07T10:33:01.806Z,1988.00
2022-10-07T10:34:01.802Z,1980.00
2022-10-07T10:35:01.785Z,1984.00
2022-10-07T10:36:01.765Z,1972.00
2022-10-07T10:37:01.742Z,1976.00
2022-10-07T10:38:01.733Z,1980.00
2022-10-07T10:39:01.737Z,1976.00
2022-10-07T10:40:01.737Z,1976.00
2022-10-07T10:41:01.740Z,1976.00
2022-10-07T10:42:01.693Z,1988.00
2022-10-07T10:43:01.688Z,1976.00
2022-10-07T10:44:01.669Z,1972.00
2022-10-07T10:45:01.681Z,1968.00
2022-10-07T10:46:01.647Z,1968.00
2022-10-07T10:47:01.746Z,1964.00
2022-10-07T10:48:01.626Z,1960.00
2022-10-07T10:49:01.683Z,1964.00
2022-10-07T10:50:01.604Z,1956.00
2022-10-07T10:51:01.591Z,1948.00
2022-10-07T10:52:01.607Z,1952.00
2022-10-07T10:53:01.596Z,1960.00
2022-10-07T10:54:01.561Z,1964.00
2022-10-07T10:55:01.576Z,1960.00
2022-10-07T10:56:01.546Z,1960.00
2022-10-07T10:57:01.528Z,1944.00
2022-10-07T10:58:01.565Z,1948.00
2022-10-07T10:59:01.504Z,1940.00
2022-10-07T11:00:01.532Z,1936.00
2022-10-07T11:01:01.514Z,1928.00
2022-10-07T11:02:01.607Z,1932.00
2022-10-07T11:03:01.504Z,1928.00
2022-10-07T11:04:01.458Z,1956.00
2022-10-07T11:05:01.446Z,2012.00
2022-10-07T11:06:01.475Z,1996.00
2022-10-07T11:07:01.435Z,1952.00
2022-10-07T11:08:02.003Z,1940.00
2022-10-07T11:09:01.391Z,1920.00
2022-10-07T11:10:02.062Z,1920.00
2022-10-07T11:11:01.393Z,1900.00
2022-10-07T11:12:01.710Z,1888.00
2022-10-07T11:13:01.355Z,1880.00
2022-10-07T11:14:01.338Z,1872.00
2022-10-07T11:15:02.248Z,1848.00
2022-10-07T11:16:01.442Z,1844.00
2022-10-07T11:17:01.330Z,1836.00
2022-10-07T11:18:01.311Z,1832.00
2022-10-07T11:19:01.291Z,1820.00
2022-10-07T11:20:01.276Z,1812.00
2022-10-07T11:21:01.283Z,1808.00
2022-10-07T11:22:01.252Z,1804.00
2022-10-07T11:23:01.241Z,1808.00
2022-10-07T11:24:01.258Z,1812.00
2022-10-07T11:25:01.245Z,1796.00
2022-10-07T11:26:01.267Z,1784.00
2022-10-07T11:27:01.218Z,1780.00
2022-10-07T11:28:01.262Z,1780.00
2022-10-07T11:29:01.171Z,1772.00
2022-10-07T11:30:01.217Z,1756.00
2022-10-07T11:31:01.236Z,1744.00
2022-10-07T11:32:01.161Z,1744.00
2022-10-07T11:33:01.132Z,1744.00
2022-10-07T11:34:01.122Z,1740.00
2022-10-07T11:35:01.105Z,1724.00
2022-10-07T11:36:01.108Z,1716.00
2022-10-07T11:37:01.124Z,1712.00
2022-10-07T11:38:01.080Z,1712.00
2022-10-07T11:39:01.058Z,1720.00
2022-10-07T11:40:01.053Z,1716.00
2022-10-07T11:41:01.036Z,1704.00
2022-10-07T11:42:01.030Z,1700.00
2022-10-07T11:43:01.091Z,1700.00
2022-10-07T11:44:01.007Z,1700.00
2022-10-07T11:45:00.999Z,1692.00
2022-10-07T11:46:00.984Z,1676.00
2022-10-07T11:47:01.032Z,1680.00
2022-10-07T11:48:00.986Z,1680.00
2022-10-07T11:49:00.961Z,1672.00
2022-10-07T11:50:00.940Z,1668.00
2022-10-07T11:51:00.927Z,1668.00
2022-10-07T11:52:00.915Z,1664.00
2022-10-07T11:53:00.928Z,1660.00
2022-10-07T11:54:00.922Z,1652.00
2022-10-07T11:55:00.890Z,1632.00
2022-10-07T11:56:00.903Z,1628.00
2022-10-07T11:57:00.866Z,1620.00
2022-10-07T11:58:00.868Z,1636.00
2022-10-07T11:59:00.886Z,1636.00
2022-10-07T12:00:00.849Z,1636.00
2022-10-07T12:01:00.825Z,1636.00
2022-10-07T12:02:00.863Z,1636.00
2022-10-07T12:03:00.888Z,1632.00
2022-10-07T12:04:02.282Z,1616.00
2022-10-07T12:05:00.775Z,1596.00
2022-10-07T12:06:00.779Z,1604.00
2022-10-07T12:07:00.771Z,1576.00
2022-10-07T12:08:00.740Z,1596.00
2022-10-07T12:09:00.736Z,1592.00
2022-10-07T12:10:00.721Z,1600.00
2022-10-07T12:11:02.410Z,1600.00
2022-10-07T12:12:00.706Z,1592.00
2022-10-07T12:13:00.702Z,1552.00
2022-10-07T12:14:00.672Z,1548.00
2022-10-07T12:15:00.713Z,1544.00
2022-10-07T12:16:00.697Z,1552.00
2022-10-07T12:17:00.642Z,1552.00
2022-10-07T12:18:00.667Z,1544.00
2022-10-07T12:19:00.616Z,1520.00
2022-10-07T12:20:00.603Z,1496.00
2022-10-07T12:21:00.594Z,1484.00
2022-10-07T12:22:00.603Z,1484.00
2022-10-07T12:23:00.568Z,1472.00
2022-10-07T12:24:00.568Z,1468.00
2022-10-07T12:25:00.558Z,1468.00
2022-10-07T12:26:00.559Z,1468.00
2022-10-07T12:27:00.525Z,1456.00
2022-10-07T12:28:01.329Z,1448.00
2022-10-07T12:29:00.524Z,1440.00
2022-10-07T12:30:00.492Z,1428.00
2022-10-07T12:31:00.540Z,1420.00
2022-10-07T12:32:00.512Z,1408.00
2022-10-07T12:33:00.480Z,1396.00
2022-10-07T12:34:00.451Z,1392.00
2022-10-07T12:35:00.438Z,1380.00
2022-10-07T12:36:00.445Z,1380.00
2022-10-07T12:37:00.422Z,1360.00
2022-10-07T12:38:00.406Z,1356.00
2022-10-07T12:39:00.422Z,1344.00
2022-10-07T12:40:00.385Z,1348.00
2022-10-07T12:41:00.374Z,1344.00
2022-10-07T12:42:00.362Z,1332.00
2022-10-07T12:43:00.369Z,1316.00
2022-10-07T12:44:00.361Z,1304.00
2022-10-07T12:45:00.336Z,1252.00
2022-10-07T12:46:00.378Z,1264.00
2022-10-07T12:47:00.402Z,1284.00
2022-10-07T12:48:00.298Z,1268.00
2022-10-07T12:49:00.305Z,1252.00
2022-10-07T12:50:00.300Z,1256.00
2022-10-07T12:51:00.272Z,1276.00
2022-10-07T12:52:00.276Z,1268.00
2022-10-07T12:53:00.237Z,1248.00
2022-10-07T12:54:00.230Z,1224.00
2022-10-07T12:55:00.256Z,1196.00
2022-10-07T12:56:00.210Z,1192.00
2022-10-07T12:57:00.224Z,1128.00
2022-10-07T12:58:00.193Z,1128.00
2022-10-07T12:59:00.182Z,1168.00
2022-10-07T13:00:00.179Z,1196.00
2022-10-07T13:01:00.281Z,1200.00
2022-10-07T13:02:00.370Z,1184.00
2022-10-07T13:03:00.155Z,1152.00
2022-10-07T13:04:00.123Z,1156.00
2022-10-07T13:05:00.114Z,1128.00
2022-10-07T13:06:00.134Z,1124.00
2022-10-07T13:07:00.107Z,1128.00
2022-10-07T13:08:00.085Z,1112.00
2022-10-07T13:09:00.062Z,1136.00
2022-10-07T13:10:00.060Z,1144.00
2022-10-07T13:11:00.099Z,1120.00
2022-10-07T13:12:00.030Z,1076.00
2022-10-07T13:13:00.033Z,1080.00
2022-10-07T13:14:00.032Z,1080.00
2022-10-07T13:15:00.004Z,1064.00
2022-10-07T13:16:00.063Z,1056.00
2022-10-07T13:16:59.983Z,1096.00
2022-10-07T13:17:59.975Z,1072.00
2022-10-07T13:19:00.025Z,1060.00
2022-10-07T13:19:59.948Z,1036.00
2022-10-07T13:20:59.935Z,1020.00
2022-10-07T13:21:59.924Z,980.00
2022-10-07T13:22:59.914Z,948.00
2022-10-07T13:23:59.902Z,1004.00
2022-10-07T13:24:59.939Z,984.00
2022-10-07T13:25:59.887Z,980.00
2022-10-07T13:26:59.879Z,1004.00
2022-10-07T13:27:59.904Z,980.00
2022-10-07T13:28:59.847Z,988.00
2022-10-07T13:29:59.843Z,988.00
2022-10-07T13:30:59.854Z,972.00
2022-10-07T13:31:59.899Z,976.00
2022-10-07T13:32:59.802Z,976.00
2022-10-07T13:33:59.808Z,976.00
2022-10-07T13:34:59.844Z,944.00
2022-10-07T13:35:59.768Z,936.00
2022-10-07T13:36:59.778Z,956.00
2022-10-07T13:37:59.748Z,928.00
2022-10-07T13:38:59.739Z,932.00
2022-10-07T13:39:59.816Z,920.00
2022-10-07T13:40:59.745Z,912.00
2022-10-07T13:41:59.710Z,912.00
2022-10-07T13:42:59.727Z,912.00
2022-10-07T13:43:59.685Z,892.00
2022-10-07T13:44:59.674Z,900.00
2022-10-07T13:45:59.746Z,904.00
2022-10-07T13:46:59.676Z,900.00
2022-10-07T13:47:59.638Z,896.00
2022-10-07T13:48:59.671Z,888.00
2022-10-07T13:49:59.713Z,884.00
2022-10-07T13:50:59.711Z,884.00
2022-10-07T13:51:59.617Z,880.00
2022-10-07T13:52:59.590Z,876.00
2022-10-07T13:53:59.589Z,848.00
2022-10-07T13:54:59.582Z,792.00
2022-10-07T13:55:59.572Z,736.00
2022-10-07T13:56:59.547Z,632.00
2022-10-07T13:57:59.546Z,544.00
2022-10-07T13:58:59.523Z,492.00
2022-10-07T13:59:59.533Z,416.00
2022-10-07T14:00:59.559Z,376.00
2022-10-07T14:01:59.590Z,364.00
2022-10-07T14:02:59.583Z,344.00
2022-10-07T14:03:59.462Z,300.00
2022-10-07T14:04:59.453Z,276.00
2022-10-07T14:05:59.442Z,272.00
2022-10-07T14:06:59.471Z,268.00
2022-10-07T14:07:59.422Z,272.00
2022-10-07T14:08:59.415Z,280.00
2022-10-07T14:09:59.490Z,276.00
2022-10-07T14:10:59.391Z,272.00
2022-10-07T14:11:59.372Z,260.00
2022-10-07T14:12:59.405Z,252.00
2022-10-07T14:13:59.363Z,268.00
2022-10-07T14:14:59.344Z,280.00
2022-10-07T14:15:59.336Z,276.00
2022-10-07T14:16:59.515Z,272.00
2022-10-07T14:17:59.336Z,256.00
2022-10-07T14:18:59.313Z,236.00
2022-10-07T14:19:59.374Z,232.00
2022-10-07T14:20:59.282Z,236.00
2022-10-07T14:21:59.299Z,220.00
2022-10-07T14:22:59.329Z,224.00
2022-10-07T14:23:59.246Z,240.00
2022-10-07T14:24:59.282Z,268.00
2022-10-07T14:25:59.222Z,284.00
2022-10-07T14:26:59.214Z,300.00
2022-10-07T14:27:59.296Z,328.00
2022-10-07T14:28:59.212Z,344.00
2022-10-07T14:29:59.211Z,332.00
2022-10-07T14:30:59.317Z,332.00
2022-10-07T14:31:59.157Z,332.00
2022-10-07T14:32:59.149Z,312.00
2022-10-07T14:33:59.151Z,284.00
2022-10-07T14:34:59.128Z,264.00
2022-10-07T14:35:59.113Z,232.00
2022-10-07T14:36:59.110Z,220.00
2022-10-07T14:37:59.088Z,220.00
2022-10-07T14:38:59.121Z,220.00
2022-10-07T14:39:59.138Z,212.00
2022-10-07T14:40:59.074Z,208.00
2022-10-07T14:41:59.057Z,208.00
2022-10-07T14:42:59.050Z,208.00
2022-10-07T14:43:59.049Z,208.00
2022-10-07T14:44:59.046Z,204.00
2022-10-07T14:45:59.075Z,196.00
2022-10-07T14:46:59.028Z,192.00
2022-10-07T14:47:58.999Z,192.00
2022-10-07T14:48:58.976Z,188.00
2022-10-07T14:49:59.037Z,188.00
2022-10-07T14:50:58.948Z,180.00
2022-10-07T14:51:58.938Z,172.00
2022-10-07T14:52:58.954Z,172.00
2022-10-07T14:53:58.942Z,168.00
2022-10-07T14:54:58.925Z,160.00
2022-10-07T14:55:58.932Z,160.00
2022-10-07T14:56:58.896Z,156.00
2022-10-07T14:57:58.920Z,156.00
2022-10-07T14:58:58.873Z,156.00
2022-10-07T14:59:58.944Z,152.00
2022-10-07T15:00:58.859Z,152.00
2022-10-07T15:01:58.827Z,152.00
2022-10-07T15:02:58.823Z,152.00
2022-10-07T15:03:58.980Z,152.00
2022-10-07T15:04:58.878Z,148.00
2022-10-07T15:05:58.787Z,148.00
2022-10-07T15:06:58.794Z,152.00
2022-10-07T15:07:58.793Z,144.00
2022-10-07T15:08:58.781Z,148.00
2022-10-07T15:09:58.741Z,148.00
2022-10-07T15:10:58.776Z,148.00
2022-10-07T15:11:58.736Z,148.00
2022-10-07T15:12:58.734Z,144.00
2022-10-07T15:13:58.718Z,144.00
2022-10-07T15:14:58.692Z,144.00
2022-10-07T15:15:58.678Z,144.00
2022-10-07T15:16:58.772Z,144.00
2022-10-07T15:17:58.658Z,140.00
2022-10-07T15:18:58.659Z,144.00
2022-10-07T15:19:58.636Z,144.00
2022-10-07T15:20:58.634Z,144.00
2022-10-07T15:21:58.637Z,144.00
2022-10-07T15:22:58.606Z,140.00
2022-10-07T15:23:58.587Z,140.00
2022-10-07T15:24:58.591Z,140.00
2022-10-07T15:25:58.569Z,140.00
2022-10-07T15:26:58.624Z,136.00
2022-10-07T15:27:58.626Z,136.00
2022-10-07T15:28:58.552Z,136.00
2022-10-07T15:29:58.540Z,132.00
2022-10-07T15:30:58.568Z,136.00
2022-10-07T15:31:58.528Z,136.00
2022-10-07T15:32:58.500Z,136.00
2022-10-07T15:33:58.507Z,136.00
2022-10-07T15:34:58.472Z,136.00
2022-10-07T15:35:58.476Z,136.00
2022-10-07T15:36:58.466Z,136.00
2022-10-07T15:37:58.443Z,132.00
2022-10-07T15:38:58.438Z,132.00
2022-10-07T15:39:58.430Z,128.00
2022-10-07T15:40:58.406Z,124.00
2022-10-07T15:41:58.413Z,124.00
2022-10-07T15:42:58.479Z,124.00
2022-10-07T15:43:58.378Z,124.00
2022-10-07T15:44:58.368Z,124.00
2022-10-07T15:45:58.407Z,124.00
2022-10-07T15:46:58.348Z,124.00
2022-10-07T15:48:00.600Z,128.00
2022-10-07T15:48:58.318Z,128.00
2022-10-07T15:49:58.325Z,124.00
2022-10-07T15:50:58.311Z,128.00
2022-10-07T15:51:58.292Z,128.00
2022-10-07T15:52:58.278Z,128.00
2022-10-07T15:53:58.273Z,128.00
2022-10-07T15:54:58.283Z,128.00
2022-10-07T15:55:58.248Z,136.00
2022-10-07T15:56:58.236Z,132.00
2022-10-07T15:57:58.220Z,132.00
2022-10-07T15:58:58.226Z,128.00
2022-10-07T15:59:58.226Z,124.00
2022-10-07T16:00:58.226Z,120.00
2022-10-07T16:01:58.210Z,116.00
2022-10-07T16:02:58.193Z,112.00
2022-10-07T16:03:58.180Z,112.00
2022-10-07T16:04:58.159Z,108.00
2022-10-07T16:05:58.161Z,108.00
2022-10-07T16:06:58.174Z,104.00
2022-10-07T16:07:58.108Z,104.00
2022-10-07T16:08:58.102Z,104.00
2022-10-07T16:09:58.112Z,100.00
2022-10-07T16:10:58.102Z,100.00
2022-10-07T16:11:58.088Z,96.00
2022-10-07T16:12:58.054Z,92.00
2022-10-07T16:13:58.045Z,88.00
2022-10-07T16:14:58.085Z,88.00
2022-10-07T16:15:58.049Z,92.00
2022-10-07T16:16:58.022Z,88.00
2022-10-07T16:17:58.022Z,88.00
2022-10-07T16:18:58.004Z,84.00
2022-10-07T16:19:58.013Z,84.00
2022-10-07T16:20:57.980Z,84.00
2022-10-07T16:21:57.955Z,80.00
2022-10-07T16:22:57.954Z,80.00
2022-10-07T16:23:57.981Z,76.00
2022-10-07T16:24:57.926Z,76.00
2022-10-07T16:25:57.910Z,76.00
2022-10-07T16:26:57.900Z,72.00
2022-10-07T16:27:57.892Z,72.00
2022-10-07T16:28:57.878Z,68.00
2022-10-07T16:29:57.895Z,64.00
2022-10-07T16:30:57.903Z,64.00
2022-10-07T16:31:59.133Z,60.00
2022-10-07T16:32:57.840Z,60.00
2022-10-07T16:33:57.828Z,56.00
2022-10-07T16:34:57.820Z,56.00
2022-10-07T16:35:57.844Z,52.00
2022-10-07T16:36:57.802Z,48.00
2022-10-07T16:37:57.772Z,48.00
2022-10-07T16:38:57.774Z,44.00
2022-10-07T16:39:57.786Z,40.00
2022-10-07T16:40:57.756Z,40.00
2022-10-07T16:41:57.746Z,36.00
2022-10-07T16:42:57.727Z,36.00
2022-10-07T16:43:57.737Z,32.00
2022-10-07T16:44:57.706Z,28.00
2022-10-07T16:45:57.737Z,24.00
2022-10-07T16:46:57.778Z,24.00
2022-10-07T16:47:57.678Z,24.00
2022-10-07T16:48:57.679Z,20.00
2022-10-07T16:49:57.676Z,20.00
2022-10-07T16:50:57.642Z,16.00
2022-10-07T16:51:57.617Z,12.00
2022-10-07T16:52:57.616Z,12.00